Elkville, Illinois
Current Conditions -  °F | °C
As of 4:52 AM on Friday 21 Nov 2014 (Local Time) from KMDH Reporting Station
Scattered Clouds Scattered Clouds  
Wind Chill: 13°   Ceiling: Unl
Heat Index: 20°   Visibility: 10mi
Dew Point: 16°   Wind: 5mph
Humidity: 85%   Direction: 50°NE
Pressure: 30.4"   Gusts: NA
Location:  37.91°N, 89.24°W
Report Text: KMDH 211052Z AUTO 05004KT 10SM SCT050 M07/M09 A3040 RMK AO2 SLP297 I1000 T10671089
Loading
Personal Weather Stations






























Interactive Weather Map New forecast layout! Learn more

10-Day Weather Forecast

Advertisements
Track Severe Weather on mobile